sensor_id;sensor_type;location;lat;lon;timestamp;P1;P2;P0
46839;PMS5003;70678;50.710;5.026;2023-07-20T00:02:26;1;1;
46839;PMS5003;70678;50.710;5.026;2023-07-20T00:04:54;2;2;
46839;PMS5003;70678;50.710;5.026;2023-07-20T00:07:21;1;1;
46839;PMS5003;70678;50.710;5.026;2023-07-20T00:09:50;0;0;
46839;PMS5003;70678;50.710;5.026;2023-07-20T00:12:18;2;2;
46839;PMS5003;70678;50.710;5.026;2023-07-20T00:14:45;1;1;
46839;PMS5003;70678;50.710;5.026;2023-07-20T00:17:12;1;1;
46839;PMS5003;70678;50.710;5.026;2023-07-20T00:19:41;3;3;
46839;PMS5003;70678;50.710;5.026;2023-07-20T00:22:09;1;1;
46839;PMS5003;70678;50.710;5.026;2023-07-20T00:24:39;0;0;
46839;PMS5003;70678;50.710;5.026;2023-07-20T00:27:07;3;3;
46839;PMS5003;70678;50.710;5.026;2023-07-20T00:29:35;1;1;
46839;PMS5003;70678;50.710;5.026;2023-07-20T00:32:05;2;2;
46839;PMS5003;70678;50.710;5.026;2023-07-20T00:34:33;0;0;
46839;PMS5003;70678;50.710;5.026;2023-07-20T00:37:02;1;1;
46839;PMS5003;70678;50.710;5.026;2023-07-20T00:39:30;0;0;
46839;PMS5003;70678;50.710;5.026;2023-07-20T00:41:57;0;0;
46839;PMS5003;70678;50.710;5.026;2023-07-20T00:44:24;1;1;
46839;PMS5003;70678;50.710;5.026;2023-07-20T00:46:52;1;1;
46839;PMS5003;70678;50.710;5.026;2023-07-20T00:49:21;2;2;
46839;PMS5003;70678;50.710;5.026;2023-07-20T00:51:48;1;1;
46839;PMS5003;70678;50.710;5.026;2023-07-20T00:54:18;1;1;
46839;PMS5003;70678;50.710;5.026;2023-07-20T00:56:47;1;1;
46839;PMS5003;70678;50.710;5.026;2023-07-20T00:59:15;1;1;
46839;PMS5003;70678;50.710;5.026;2023-07-20T01:01:42;2;2;
46839;PMS5003;70678;50.710;5.026;2023-07-20T01:04:11;1;1;
46839;PMS5003;70678;50.710;5.026;2023-07-20T01:06:41;2;2;
46839;PMS5003;70678;50.710;5.026;2023-07-20T01:09:17;3;3;
46839;PMS5003;70678;50.710;5.026;2023-07-20T01:11:48;1;1;
46839;PMS5003;70678;50.710;5.026;2023-07-20T01:14:25;1;1;
46839;PMS5003;70678;50.710;5.026;2023-07-20T01:16:52;1;1;
46839;PMS5003;70678;50.710;5.026;2023-07-20T01:19:23;0;0;
46839;PMS5003;70678;50.710;5.026;2023-07-20T01:21:52;1;1;
46839;PMS5003;70678;50.710;5.026;2023-07-20T01:24:43;1;1;
46839;PMS5003;70678;50.710;5.026;2023-07-20T01:27:23;2;2;
46839;PMS5003;70678;50.710;5.026;2023-07-20T01:30:05;3;3;
46839;PMS5003;70678;50.710;5.026;2023-07-20T01:32:43;0;0;
46839;PMS5003;70678;50.710;5.026;2023-07-20T01:35:11;1;1;
46839;PMS5003;70678;50.710;5.026;2023-07-20T01:37:41;2;2;
46839;PMS5003;70678;50.710;5.026;2023-07-20T01:40:11;0;0;
46839;PMS5003;70678;50.710;5.026;2023-07-20T01:42:43;0;0;
46839;PMS5003;70678;50.710;5.026;2023-07-20T01:45:12;2;2;
46839;PMS5003;70678;50.710;5.026;2023-07-20T01:47:41;0;0;
46839;PMS5003;70678;50.710;5.026;2023-07-20T01:50:09;0;0;
46839;PMS5003;70678;50.710;5.026;2023-07-20T01:52:36;2;2;
46839;PMS5003;70678;50.710;5.026;2023-07-20T01:55:06;0;0;
46839;PMS5003;70678;50.710;5.026;2023-07-20T01:57:34;2;2;
46839;PMS5003;70678;50.710;5.026;2023-07-20T02:00:02;1;1;
46839;PMS5003;70678;50.710;5.026;2023-07-20T02:02:30;2;2;
46839;PMS5003;70678;50.710;5.026;2023-07-20T02:04:58;1;1;
46839;PMS5003;70678;50.710;5.026;2023-07-20T02:07:26;2;2;
46839;PMS5003;70678;50.710;5.026;2023-07-20T02:09:55;2;2;
46839;PMS5003;70678;50.710;5.026;2023-07-20T02:12:22;0;0;
46839;PMS5003;70678;50.710;5.026;2023-07-20T02:14:52;2;2;
46839;PMS5003;70678;50.710;5.026;2023-07-20T02:17:20;3;3;
46839;PMS5003;70678;50.710;5.026;2023-07-20T02:19:50;1;1;
46839;PMS5003;70678;50.710;5.026;2023-07-20T02:22:19;2;2;
46839;PMS5003;70678;50.710;5.026;2023-07-20T02:24:49;3;3;
46839;PMS5003;70678;50.710;5.026;2023-07-20T02:27:16;1;1;
46839;PMS5003;70678;50.710;5.026;2023-07-20T02:29:44;1;1;
46839;PMS5003;70678;50.710;5.026;2023-07-20T02:32:14;2;2;
46839;PMS5003;70678;50.710;5.026;2023-07-20T02:34:41;2;2;
46839;PMS5003;70678;50.710;5.026;2023-07-20T02:37:09;1;1;
46839;PMS5003;70678;50.710;5.026;2023-07-20T02:39:38;0;0;
46839;PMS5003;70678;50.710;5.026;2023-07-20T02:42:07;2;2;
46839;PMS5003;70678;50.710;5.026;2023-07-20T02:44:35;2;2;
46839;PMS5003;70678;50.710;5.026;2023-07-20T02:47:02;2;2;
46839;PMS5003;70678;50.710;5.026;2023-07-20T02:49:30;2;2;
46839;PMS5003;70678;50.710;5.026;2023-07-20T02:51:58;1;1;
46839;PMS5003;70678;50.710;5.026;2023-07-20T02:54:25;3;3;
46839;PMS5003;70678;50.710;5.026;2023-07-20T02:56:53;2;2;
46839;PMS5003;70678;50.710;5.026;2023-07-20T02:59:20;2;2;
46839;PMS5003;70678;50.710;5.026;2023-07-20T03:01:48;1;1;
46839;PMS5003;70678;50.710;5.026;2023-07-20T03:04:18;2;2;
46839;PMS5003;70678;50.710;5.026;2023-07-20T03:06:47;2;2;
46839;PMS5003;70678;50.710;5.026;2023-07-20T03:09:15;2;2;
46839;PMS5003;70678;50.710;5.026;2023-07-20T03:11:45;3;3;
46839;PMS5003;70678;50.710;5.026;2023-07-20T03:14:13;3;3;
46839;PMS5003;70678;50.710;5.026;2023-07-20T03:16:43;2;2;
46839;PMS5003;70678;50.710;5.026;2023-07-20T03:19:10;2;2;
46839;PMS5003;70678;50.710;5.026;2023-07-20T03:21:39;2;2;
46839;PMS5003;70678;50.710;5.026;2023-07-20T03:24:06;3;3;
46839;PMS5003;70678;50.710;5.026;2023-07-20T03:26:36;2;2;
46839;PMS5003;70678;50.710;5.026;2023-07-20T03:29:04;3;3;
46839;PMS5003;70678;50.710;5.026;2023-07-20T03:31:31;1;1;
46839;PMS5003;70678;50.710;5.026;2023-07-20T03:33:59;2;2;
46839;PMS5003;70678;50.710;5.026;2023-07-20T03:36:28;2;2;
46839;PMS5003;70678;50.710;5.026;2023-07-20T03:38:56;2;2;
46839;PMS5003;70678;50.710;5.026;2023-07-20T03:41:26;5;5;
46839;PMS5003;70678;50.710;5.026;2023-07-20T03:43:54;5;5;
46839;PMS5003;70678;50.710;5.026;2023-07-20T03:46:22;3;3;
46839;PMS5003;70678;50.710;5.026;2023-07-20T03:48:50;3;3;
46839;PMS5003;70678;50.710;5.026;2023-07-20T03:51:17;1;1;
46839;PMS5003;70678;50.710;5.026;2023-07-20T03:53:45;1;1;
46839;PMS5003;70678;50.710;5.026;2023-07-20T03:56:15;1;1;
46839;PMS5003;70678;50.710;5.026;2023-07-20T03:58:43;1;1;
46839;PMS5003;70678;50.710;5.026;2023-07-20T04:01:10;2;2;
46839;PMS5003;70678;50.710;5.026;2023-07-20T04:03:38;2;2;
46839;PMS5003;70678;50.710;5.026;2023-07-20T04:06:07;0;0;
46839;PMS5003;70678;50.710;5.026;2023-07-20T04:08:35;2;2;
46839;PMS5003;70678;50.710;5.026;2023-07-20T04:11:05;2;2;
46839;PMS5003;70678;50.710;5.026;2023-07-20T04:13:32;3;3;
46839;PMS5003;70678;50.710;5.026;2023-07-20T04:16:01;2;2;
46839;PMS5003;70678;50.710;5.026;2023-07-20T04:18:29;3;3;
46839;PMS5003;70678;50.710;5.026;2023-07-20T04:20:58;3;3;
46839;PMS5003;70678;50.710;5.026;2023-07-20T04:23:26;2;2;
46839;PMS5003;70678;50.710;5.026;2023-07-20T04:25:56;2;2;
46839;PMS5003;70678;50.710;5.026;2023-07-20T04:28:24;3;3;
46839;PMS5003;70678;50.710;5.026;2023-07-20T04:30:54;1;1;
46839;PMS5003;70678;50.710;5.026;2023-07-20T04:33:21;5;5;
46839;PMS5003;70678;50.710;5.026;2023-07-20T04:35:52;0;0;
46839;PMS5003;70678;50.710;5.026;2023-07-20T04:38:20;3;3;
46839;PMS5003;70678;50.710;5.026;2023-07-20T04:40:49;1;1;
46839;PMS5003;70678;50.710;5.026;2023-07-20T04:43:17;3;3;
46839;PMS5003;70678;50.710;5.026;2023-07-20T04:45:45;3;3;
46839;PMS5003;70678;50.710;5.026;2023-07-20T04:48:13;3;3;
46839;PMS5003;70678;50.710;5.026;2023-07-20T04:50:43;3;3;
46839;PMS5003;70678;50.710;5.026;2023-07-20T04:53:13;3;3;
46839;PMS5003;70678;50.710;5.026;2023-07-20T04:55:46;3;3;
46839;PMS5003;70678;50.710;5.026;2023-07-20T04:58:16;0;0;
46839;PMS5003;70678;50.710;5.026;2023-07-20T05:00:45;1;1;
46839;PMS5003;70678;50.710;5.026;2023-07-20T05:03:16;1;1;
46839;PMS5003;70678;50.710;5.026;2023-07-20T05:05:44;3;3;
46839;PMS5003;70678;50.710;5.026;2023-07-20T05:08:15;2;2;
46839;PMS5003;70678;50.710;5.026;2023-07-20T05:10:42;5;5;
46839;PMS5003;70678;50.710;5.026;2023-07-20T05:13:13;2;2;
46839;PMS5003;70678;50.710;5.026;2023-07-20T05:15:40;3;3;
46839;PMS5003;70678;50.710;5.026;2023-07-20T05:18:07;3;3;
46839;PMS5003;70678;50.710;5.026;2023-07-20T05:20:35;0;0;
46839;PMS5003;70678;50.710;5.026;2023-07-20T05:23:02;1;1;
46839;PMS5003;70678;50.710;5.026;2023-07-20T05:25:30;2;2;
46839;PMS5003;70678;50.710;5.026;2023-07-20T05:27:57;3;3;
46839;PMS5003;70678;50.710;5.026;2023-07-20T05:30:24;3;3;
46839;PMS5003;70678;50.710;5.026;2023-07-20T05:32:54;2;2;
46839;PMS5003;70678;50.710;5.026;2023-07-20T05:35:22;3;3;
46839;PMS5003;70678;50.710;5.026;2023-07-20T05:37:49;3;3;
46839;PMS5003;70678;50.710;5.026;2023-07-20T05:40:19;7;7;
46839;PMS5003;70678;50.710;5.026;2023-07-20T05:42:47;2;2;
46839;PMS5003;70678;50.710;5.026;2023-07-20T05:45:16;12;9;
46839;PMS5003;70678;50.710;5.026;2023-07-20T05:47:44;3;3;
46839;PMS5003;70678;50.710;5.026;2023-07-20T05:50:11;4;4;
46839;PMS5003;70678;50.710;5.026;2023-07-20T05:52:40;2;2;
46839;PMS5003;70678;50.710;5.026;2023-07-20T05:55:08;4;4;
46839;PMS5003;70678;50.710;5.026;2023-07-20T05:57:35;2;2;
46839;PMS5003;70678;50.710;5.026;2023-07-20T06:00:04;7;7;
46839;PMS5003;70678;50.710;5.026;2023-07-20T06:02:32;2;2;
46839;PMS5003;70678;50.710;5.026;2023-07-20T06:05:02;6;6;
46839;PMS5003;70678;50.710;5.026;2023-07-20T06:07:30;5;5;
46839;PMS5003;70678;50.710;5.026;2023-07-20T06:09:56;4;4;
46839;PMS5003;70678;50.710;5.026;2023-07-20T06:12:24;7;7;
46839;PMS5003;70678;50.710;5.026;2023-07-20T06:14:51;6;6;
46839;PMS5003;70678;50.710;5.026;2023-07-20T06:17:21;5;5;
46839;PMS5003;70678;50.710;5.026;2023-07-20T06:19:48;3;3;
46839;PMS5003;70678;50.710;5.026;2023-07-20T06:22:18;4;4;
46839;PMS5003;70678;50.710;5.026;2023-07-20T06:24:45;4;4;
46839;PMS5003;70678;50.710;5.026;2023-07-20T06:27:13;4;4;
46839;PMS5003;70678;50.710;5.026;2023-07-20T06:29:41;5;5;
46839;PMS5003;70678;50.710;5.026;2023-07-20T06:32:09;1;1;
46839;PMS5003;70678;50.710;5.026;2023-07-20T06:34:37;4;4;
46839;PMS5003;70678;50.710;5.026;2023-07-20T06:37:06;1;1;
46839;PMS5003;70678;50.710;5.026;2023-07-20T06:39:34;3;3;
46839;PMS5003;70678;50.710;5.026;2023-07-20T06:42:02;5;5;
46839;PMS5003;70678;50.710;5.026;2023-07-20T06:44:31;5;5;
46839;PMS5003;70678;50.710;5.026;2023-07-20T06:46:58;3;3;
46839;PMS5003;70678;50.710;5.026;2023-07-20T06:49:25;4;4;
46839;PMS5003;70678;50.710;5.026;2023-07-20T06:51:56;6;6;
46839;PMS5003;70678;50.710;5.026;2023-07-20T06:54:24;5;4;
46839;PMS5003;70678;50.710;5.026;2023-07-20T06:56:53;1;1;
46839;PMS5003;70678;50.710;5.026;2023-07-20T06:59:21;5;5;
46839;PMS5003;70678;50.710;5.026;2023-07-20T07:01:49;5;5;
46839;PMS5003;70678;50.710;5.026;2023-07-20T07:04:18;2;2;
46839;PMS5003;70678;50.710;5.026;2023-07-20T07:06:46;4;4;
46839;PMS5003;70678;50.710;5.026;2023-07-20T07:09:13;3;3;
46839;PMS5003;70678;50.710;5.026;2023-07-20T07:11:41;4;4;
46839;PMS5003;70678;50.710;5.026;2023-07-20T07:14:07;4;4;
46839;PMS5003;70678;50.710;5.026;2023-07-20T07:16:34;4;4;
46839;PMS5003;70678;50.710;5.026;2023-07-20T07:19:04;8;8;
46839;PMS5003;70678;50.710;5.026;2023-07-20T07:21:32;5;5;
46839;PMS5003;70678;50.710;5.026;2023-07-20T07:24:00;3;3;
46839;PMS5003;70678;50.710;5.026;2023-07-20T07:26:28;2;2;
46839;PMS5003;70678;50.710;5.026;2023-07-20T07:28:56;3;3;
46839;PMS5003;70678;50.710;5.026;2023-07-20T07:31:26;2;2;
46839;PMS5003;70678;50.710;5.026;2023-07-20T07:33:54;3;3;
46839;PMS5003;70678;50.710;5.026;2023-07-20T07:36:23;3;3;
46839;PMS5003;70678;50.710;5.026;2023-07-20T07:38:51;4;4;
46839;PMS5003;70678;50.710;5.026;2023-07-20T07:41:20;2;2;
46839;PMS5003;70678;50.710;5.026;2023-07-20T07:43:47;13;13;
46839;PMS5003;70678;50.710;5.026;2023-07-20T07:46:18;19;19;
46839;PMS5003;70678;50.710;5.026;2023-07-20T07:48:45;66;66;
46839;PMS5003;70678;50.710;5.026;2023-07-20T07:51:12;6;6;
46839;PMS5003;70678;50.710;5.026;2023-07-20T07:53:42;8;8;
46839;PMS5003;70678;50.710;5.026;2023-07-20T07:56:10;5;5;
46839;PMS5003;70678;50.710;5.026;2023-07-20T07:58:37;8;8;
46839;PMS5003;70678;50.710;5.026;2023-07-20T08:01:05;9;9;
46839;PMS5003;70678;50.710;5.026;2023-07-20T08:03:33;13;13;
46839;PMS5003;70678;50.710;5.026;2023-07-20T08:06:01;9;9;
46839;PMS5003;70678;50.710;5.026;2023-07-20T08:08:28;9;9;
46839;PMS5003;70678;50.710;5.026;2023-07-20T08:10:55;5;5;
46839;PMS5003;70678;50.710;5.026;2023-07-20T08:13:22;4;4;
46839;PMS5003;70678;50.710;5.026;2023-07-20T08:15:51;36;36;
46839;PMS5003;70678;50.710;5.026;2023-07-20T08:18:18;73;73;
46839;PMS5003;70678;50.710;5.026;2023-07-20T08:20:48;85;85;
46839;PMS5003;70678;50.710;5.026;2023-07-20T08:23:15;68;68;
46839;PMS5003;70678;50.710;5.026;2023-07-20T08:25:45;48;48;
46839;PMS5003;70678;50.710;5.026;2023-07-20T08:28:13;4;4;
46839;PMS5003;70678;50.710;5.026;2023-07-20T08:30:43;1;1;
46839;PMS5003;70678;50.710;5.026;2023-07-20T08:33:12;12;12;
46839;PMS5003;70678;50.710;5.026;2023-07-20T08:35:41;11;11;
46839;PMS5003;70678;50.710;5.026;2023-07-20T08:38:09;10;10;
46839;PMS5003;70678;50.710;5.026;2023-07-20T08:40:39;11;11;
46839;PMS5003;70678;50.710;5.026;2023-07-20T08:43:08;7;7;
46839;PMS5003;70678;50.710;5.026;2023-07-20T08:45:37;5;5;
46839;PMS5003;70678;50.710;5.026;2023-07-20T08:48:06;3;3;
46839;PMS5003;70678;50.710;5.026;2023-07-20T08:50:38;5;5;
46839;PMS5003;70678;50.710;5.026;2023-07-20T08:53:05;6;6;
46839;PMS5003;70678;50.710;5.026;2023-07-20T08:55:34;6;6;
46839;PMS5003;70678;50.710;5.026;2023-07-20T08:58:04;5;5;
46839;PMS5003;70678;50.710;5.026;2023-07-20T09:00:35;6;6;
46839;PMS5003;70678;50.710;5.026;2023-07-20T09:03:05;5;5;
46839;PMS5003;70678;50.710;5.026;2023-07-20T09:05:32;5;5;
46839;PMS5003;70678;50.710;5.026;2023-07-20T09:08:00;4;4;
46839;PMS5003;70678;50.710;5.026;2023-07-20T09:10:31;6;6;
46839;PMS5003;70678;50.710;5.026;2023-07-20T09:12:58;6;6;
46839;PMS5003;70678;50.710;5.026;2023-07-20T09:15:25;6;6;
46839;PMS5003;70678;50.710;5.026;2023-07-20T09:17:55;8;8;
46839;PMS5003;70678;50.710;5.026;2023-07-20T09:20:22;5;5;
46839;PMS5003;70678;50.710;5.026;2023-07-20T09:22:50;7;7;
46839;PMS5003;70678;50.710;5.026;2023-07-20T09:25:20;4;4;
46839;PMS5003;70678;50.710;5.026;2023-07-20T09:27:49;9;9;
46839;PMS5003;70678;50.710;5.026;2023-07-20T09:30:17;4;4;
46839;PMS5003;70678;50.710;5.026;2023-07-20T09:32:45;7;7;
46839;PMS5003;70678;50.710;5.026;2023-07-20T09:35:15;6;6;
46839;PMS5003;70678;50.710;5.026;2023-07-20T09:37:47;4;4;
46839;PMS5003;70678;50.710;5.026;2023-07-20T09:40:18;11;11;
46839;PMS5003;70678;50.710;5.026;2023-07-20T09:42:47;7;7;
46839;PMS5003;70678;50.710;5.026;2023-07-20T09:45:16;4;4;
46839;PMS5003;70678;50.710;5.026;2023-07-20T09:47:44;5;5;
46839;PMS5003;70678;50.710;5.026;2023-07-20T09:50:12;4;4;
46839;PMS5003;70678;50.710;5.026;2023-07-20T09:52:41;6;6;
46839;PMS5003;70678;50.710;5.026;2023-07-20T09:55:09;6;6;
46839;PMS5003;70678;50.710;5.026;2023-07-20T09:57:38;3;3;
46839;PMS5003;70678;50.710;5.026;2023-07-20T10:00:07;4;4;
46839;PMS5003;70678;50.710;5.026;2023-07-20T10:02:36;4;4;
46839;PMS5003;70678;50.710;5.026;2023-07-20T10:05:08;3;3;
46839;PMS5003;70678;50.710;5.026;2023-07-20T10:07:43;5;5;
46839;PMS5003;70678;50.710;5.026;2023-07-20T10:10:11;5;5;
46839;PMS5003;70678;50.710;5.026;2023-07-20T10:12:41;6;6;
46839;PMS5003;70678;50.710;5.026;2023-07-20T10:15:11;7;7;
46839;PMS5003;70678;50.710;5.026;2023-07-20T10:17:56;4;4;
46839;PMS5003;70678;50.710;5.026;2023-07-20T10:20:26;5;5;
46839;PMS5003;70678;50.710;5.026;2023-07-20T10:22:56;2;2;
46839;PMS5003;70678;50.710;5.026;2023-07-20T10:25:24;4;4;
46839;PMS5003;70678;50.710;5.026;2023-07-20T10:27:51;5;5;
46839;PMS5003;70678;50.710;5.026;2023-07-20T10:30:21;6;6;
46839;PMS5003;70678;50.710;5.026;2023-07-20T10:32:49;5;5;
46839;PMS5003;70678;50.710;5.026;2023-07-20T10:35:19;4;4;
46839;PMS5003;70678;50.710;5.026;2023-07-20T10:37:48;5;5;
46839;PMS5003;70678;50.710;5.026;2023-07-20T10:40:26;4;4;
46839;PMS5003;70678;50.710;5.026;2023-07-20T10:43:02;4;4;
46839;PMS5003;70678;50.710;5.026;2023-07-20T10:45:33;2;2;
46839;PMS5003;70678;50.710;5.026;2023-07-20T10:48:04;4;4;
46839;PMS5003;70678;50.710;5.026;2023-07-20T10:50:33;3;3;
46839;PMS5003;70678;50.710;5.026;2023-07-20T10:53:18;2;2;
46839;PMS5003;70678;50.710;5.026;2023-07-20T10:55:46;3;3;
46839;PMS5003;70678;50.710;5.026;2023-07-20T10:58:14;3;3;
46839;PMS5003;70678;50.710;5.026;2023-07-20T11:01:00;5;5;
46839;PMS5003;70678;50.710;5.026;2023-07-20T11:03:31;1;1;
46839;PMS5003;70678;50.710;5.026;2023-07-20T11:06:29;2;2;
46839;PMS5003;70678;50.710;5.026;2023-07-20T11:09:03;2;2;
46839;PMS5003;70678;50.710;5.026;2023-07-20T11:11:33;4;4;
46839;PMS5003;70678;50.710;5.026;2023-07-20T11:14:03;2;2;
46839;PMS5003;70678;50.710;5.026;2023-07-20T11:16:35;3;3;
46839;PMS5003;70678;50.710;5.026;2023-07-20T11:19:04;2;2;
46839;PMS5003;70678;50.710;5.026;2023-07-20T11:21:36;2;2;
46839;PMS5003;70678;50.710;5.026;2023-07-20T11:24:06;2;2;
46839;PMS5003;70678;50.710;5.026;2023-07-20T11:26:49;3;3;
46839;PMS5003;70678;50.710;5.026;2023-07-20T11:29:18;4;4;
46839;PMS5003;70678;50.710;5.026;2023-07-20T11:31:47;2;2;
46839;PMS5003;70678;50.710;5.026;2023-07-20T11:34:15;4;4;
46839;PMS5003;70678;50.710;5.026;2023-07-20T11:36:45;4;4;
46839;PMS5003;70678;50.710;5.026;2023-07-20T11:39:16;3;3;
46839;PMS5003;70678;50.710;5.026;2023-07-20T11:41:46;2;2;
46839;PMS5003;70678;50.710;5.026;2023-07-20T11:44:16;3;3;
46839;PMS5003;70678;50.710;5.026;2023-07-20T11:46:44;3;3;
46839;PMS5003;70678;50.710;5.026;2023-07-20T11:49:11;4;4;
46839;PMS5003;70678;50.710;5.026;2023-07-20T11:51:40;3;3;
46839;PMS5003;70678;50.710;5.026;2023-07-20T11:54:08;3;3;
46839;PMS5003;70678;50.710;5.026;2023-07-20T11:56:36;2;2;
46839;PMS5003;70678;50.710;5.026;2023-07-20T11:59:03;2;2;
46839;PMS5003;70678;50.710;5.026;2023-07-20T12:01:32;2;2;
46839;PMS5003;70678;50.710;5.026;2023-07-20T12:04:00;2;2;
46839;PMS5003;70678;50.710;5.026;2023-07-20T12:06:30;1;1;
46839;PMS5003;70678;50.710;5.026;2023-07-20T12:08:58;2;2;
46839;PMS5003;70678;50.710;5.026;2023-07-20T12:11:32;1;1;
46839;PMS5003;70678;50.710;5.026;2023-07-20T12:14:02;1;1;
46839;PMS5003;70678;50.710;5.026;2023-07-20T12:16:33;0;0;
46839;PMS5003;70678;50.710;5.026;2023-07-20T12:19:01;2;2;
46839;PMS5003;70678;50.710;5.026;2023-07-20T12:21:33;2;2;
46839;PMS5003;70678;50.710;5.026;2023-07-20T12:24:04;3;3;
46839;PMS5003;70678;50.710;5.026;2023-07-20T12:26:32;2;2;
46839;PMS5003;70678;50.710;5.026;2023-07-20T12:29:02;4;4;
46839;PMS5003;70678;50.710;5.026;2023-07-20T12:31:30;2;2;
46839;PMS5003;70678;50.710;5.026;2023-07-20T12:34:02;1;1;
46839;PMS5003;70678;50.710;5.026;2023-07-20T12:36:30;2;2;
46839;PMS5003;70678;50.710;5.026;2023-07-20T12:38:57;2;2;
46839;PMS5003;70678;50.710;5.026;2023-07-20T12:41:27;2;2;
46839;PMS5003;70678;50.710;5.026;2023-07-20T12:43:54;2;2;
46839;PMS5003;70678;50.710;5.026;2023-07-20T12:46:24;2;2;
46839;PMS5003;70678;50.710;5.026;2023-07-20T12:48:51;4;4;
46839;PMS5003;70678;50.710;5.026;2023-07-20T12:51:21;2;2;
46839;PMS5003;70678;50.710;5.026;2023-07-20T12:53:49;1;1;
46839;PMS5003;70678;50.710;5.026;2023-07-20T12:56:16;3;3;
46839;PMS5003;70678;50.710;5.026;2023-07-20T12:58:45;3;3;
46839;PMS5003;70678;50.710;5.026;2023-07-20T13:01:12;2;2;
46839;PMS5003;70678;50.710;5.026;2023-07-20T13:03:40;2;2;
46839;PMS5003;70678;50.710;5.026;2023-07-20T13:06:09;2;2;
46839;PMS5003;70678;50.710;5.026;2023-07-20T13:08:37;2;2;
46839;PMS5003;70678;50.710;5.026;2023-07-20T13:11:07;2;2;
46839;PMS5003;70678;50.710;5.026;2023-07-20T13:13:34;4;4;
46839;PMS5003;70678;50.710;5.026;2023-07-20T13:16:01;2;2;
46839;PMS5003;70678;50.710;5.026;2023-07-20T13:18:29;2;2;
46839;PMS5003;70678;50.710;5.026;2023-07-20T13:20:58;2;2;
46839;PMS5003;70678;50.710;5.026;2023-07-20T13:23:25;1;1;
46839;PMS5003;70678;50.710;5.026;2023-07-20T13:25:53;2;2;
46839;PMS5003;70678;50.710;5.026;2023-07-20T13:28:20;2;2;
46839;PMS5003;70678;50.710;5.026;2023-07-20T13:30:50;1;1;
46839;PMS5003;70678;50.710;5.026;2023-07-20T13:33:17;1;1;
46839;PMS5003;70678;50.710;5.026;2023-07-20T13:35:44;1;1;
46839;PMS5003;70678;50.710;5.026;2023-07-20T13:38:12;2;2;
46839;PMS5003;70678;50.710;5.026;2023-07-20T13:40:43;4;4;
46839;PMS5003;70678;50.710;5.026;2023-07-20T13:43:10;1;1;
46839;PMS5003;70678;50.710;5.026;2023-07-20T13:45:38;3;3;
46839;PMS5003;70678;50.710;5.026;2023-07-20T13:48:06;3;3;
46839;PMS5003;70678;50.710;5.026;2023-07-20T13:50:36;2;2;
46839;PMS5003;70678;50.710;5.026;2023-07-20T13:53:04;1;1;
46839;PMS5003;70678;50.710;5.026;2023-07-20T13:55:31;1;1;
46839;PMS5003;70678;50.710;5.026;2023-07-20T13:58:00;4;4;
46839;PMS5003;70678;50.710;5.026;2023-07-20T14:00:27;2;2;
46839;PMS5003;70678;50.710;5.026;2023-07-20T14:02:55;4;4;
46839;PMS5003;70678;50.710;5.026;2023-07-20T14:05:24;1;1;
46839;PMS5003;70678;50.710;5.026;2023-07-20T14:07:51;1;1;
46839;PMS5003;70678;50.710;5.026;2023-07-20T14:10:18;3;3;
46839;PMS5003;70678;50.710;5.026;2023-07-20T14:12:48;2;2;
46839;PMS5003;70678;50.710;5.026;2023-07-20T14:15:15;3;3;
46839;PMS5003;70678;50.710;5.026;2023-07-20T14:17:42;2;2;
46839;PMS5003;70678;50.710;5.026;2023-07-20T14:20:10;3;3;
46839;PMS5003;70678;50.710;5.026;2023-07-20T14:22:38;1;1;
46839;PMS5003;70678;50.710;5.026;2023-07-20T14:25:06;2;2;
46839;PMS5003;70678;50.710;5.026;2023-07-20T14:27:34;3;3;
46839;PMS5003;70678;50.710;5.026;2023-07-20T14:30:04;4;4;
46839;PMS5003;70678;50.710;5.026;2023-07-20T14:32:32;2;2;
46839;PMS5003;70678;50.710;5.026;2023-07-20T14:35:02;3;3;
46839;PMS5003;70678;50.710;5.026;2023-07-20T14:37:30;10;10;
46839;PMS5003;70678;50.710;5.026;2023-07-20T14:40:00;0;0;
46839;PMS5003;70678;50.710;5.026;2023-07-20T14:42:27;3;3;
46839;PMS5003;70678;50.710;5.026;2023-07-20T14:44:54;3;3;
46839;PMS5003;70678;50.710;5.026;2023-07-20T14:47:22;2;2;
46839;PMS5003;70678;50.710;5.026;2023-07-20T14:49:50;1;1;
46839;PMS5003;70678;50.710;5.026;2023-07-20T14:52:18;2;2;
46839;PMS5003;70678;50.710;5.026;2023-07-20T14:54:46;3;3;
46839;PMS5003;70678;50.710;5.026;2023-07-20T14:57:16;1;1;
46839;PMS5003;70678;50.710;5.026;2023-07-20T14:59:43;3;3;
46839;PMS5003;70678;50.710;5.026;2023-07-20T15:02:11;2;2;
46839;PMS5003;70678;50.710;5.026;2023-07-20T15:04:45;1;1;
46839;PMS5003;70678;50.710;5.026;2023-07-20T15:07:12;1;1;
46839;PMS5003;70678;50.710;5.026;2023-07-20T15:09:40;4;4;
46839;PMS5003;70678;50.710;5.026;2023-07-20T15:12:10;5;5;
46839;PMS5003;70678;50.710;5.026;2023-07-20T15:14:39;0;0;
46839;PMS5003;70678;50.710;5.026;2023-07-20T15:17:08;3;3;
46839;PMS5003;70678;50.710;5.026;2023-07-20T15:19:36;2;2;
46839;PMS5003;70678;50.710;5.026;2023-07-20T15:22:06;2;2;
46839;PMS5003;70678;50.710;5.026;2023-07-20T15:24:34;2;2;
46839;PMS5003;70678;50.710;5.026;2023-07-20T15:27:02;2;2;
46839;PMS5003;70678;50.710;5.026;2023-07-20T15:29:32;1;1;
46839;PMS5003;70678;50.710;5.026;2023-07-20T15:31:59;3;3;
46839;PMS5003;70678;50.710;5.026;2023-07-20T15:34:26;2;2;
46839;PMS5003;70678;50.710;5.026;2023-07-20T15:36:56;2;2;
46839;PMS5003;70678;50.710;5.026;2023-07-20T15:39:24;1;1;
46839;PMS5003;70678;50.710;5.026;2023-07-20T15:41:54;3;3;
46839;PMS5003;70678;50.710;5.026;2023-07-20T15:44:21;1;1;
46839;PMS5003;70678;50.710;5.026;2023-07-20T15:46:49;1;1;
46839;PMS5003;70678;50.710;5.026;2023-07-20T15:49:18;1;1;
46839;PMS5003;70678;50.710;5.026;2023-07-20T15:51:46;2;2;
46839;PMS5003;70678;50.710;5.026;2023-07-20T15:54:15;0;0;
46839;PMS5003;70678;50.710;5.026;2023-07-20T15:56:43;4;4;
46839;PMS5003;70678;50.710;5.026;2023-07-20T15:59:11;2;2;
46839;PMS5003;70678;50.710;5.026;2023-07-20T16:01:41;1;1;
46839;PMS5003;70678;50.710;5.026;2023-07-20T16:04:09;4;4;
46839;PMS5003;70678;50.710;5.026;2023-07-20T16:06:40;2;2;
46839;PMS5003;70678;50.710;5.026;2023-07-20T16:09:07;3;3;
46839;PMS5003;70678;50.710;5.026;2023-07-20T16:11:35;3;3;
46839;PMS5003;70678;50.710;5.026;2023-07-20T16:14:03;3;3;
46839;PMS5003;70678;50.710;5.026;2023-07-20T16:16:34;0;0;
46839;PMS5003;70678;50.710;5.026;2023-07-20T16:19:02;3;3;
46839;PMS5003;70678;50.710;5.026;2023-07-20T16:21:30;4;4;
46839;PMS5003;70678;50.710;5.026;2023-07-20T16:24:00;7;7;
46839;PMS5003;70678;50.710;5.026;2023-07-20T16:26:27;2;2;
46839;PMS5003;70678;50.710;5.026;2023-07-20T16:28:54;2;2;
46839;PMS5003;70678;50.710;5.026;2023-07-20T16:31:24;6;6;
46839;PMS5003;70678;50.710;5.026;2023-07-20T16:33:51;2;2;
46839;PMS5003;70678;50.710;5.026;2023-07-20T16:36:21;3;3;
46839;PMS5003;70678;50.710;5.026;2023-07-20T16:38:49;2;2;
46839;PMS5003;70678;50.710;5.026;2023-07-20T16:41:17;2;2;
46839;PMS5003;70678;50.710;5.026;2023-07-20T16:43:47;2;2;
46839;PMS5003;70678;50.710;5.026;2023-07-20T16:46:14;1;1;
46839;PMS5003;70678;50.710;5.026;2023-07-20T16:48:44;2;2;
46839;PMS5003;70678;50.710;5.026;2023-07-20T16:51:12;2;2;
46839;PMS5003;70678;50.710;5.026;2023-07-20T16:53:39;3;3;
46839;PMS5003;70678;50.710;5.026;2023-07-20T16:56:09;2;2;
46839;PMS5003;70678;50.710;5.026;2023-07-20T16:58:37;1;1;
46839;PMS5003;70678;50.710;5.026;2023-07-20T17:01:06;3;3;
46839;PMS5003;70678;50.710;5.026;2023-07-20T17:03:34;3;3;